sensor_id;sensor_type;location;lat;lon;timestamp;P1;durP1;ratioP1;P2;durP2;ratioP2
76576;SDS011;65441;44.748;37.600;2022-12-29T00:00:59;8.77;;;2.60;;
76576;SDS011;65441;44.748;37.600;2022-12-29T00:03:34;6.65;;;2.28;;
76576;SDS011;65441;44.748;37.600;2022-12-29T00:06:08;6.78;;;1.90;;
76576;SDS011;65441;44.748;37.600;2022-12-29T00:11:18;7.93;;;2.17;;
76576;SDS011;65441;44.748;37.600;2022-12-29T00:13:54;9.57;;;2.35;;
76576;SDS011;65441;44.748;37.600;2022-12-29T00:16:45;6.45;;;2.45;;
76576;SDS011;65441;44.748;37.600;2022-12-29T00:19:19;6.97;;;2.00;;
76576;SDS011;65441;44.748;37.600;2022-12-29T00:22:09;7.00;;;2.25;;
76576;SDS011;65441;44.748;37.600;2022-12-29T00:25:09;9.60;;;2.33;;
76576;SDS011;65441;44.748;37.600;2022-12-29T00:28:00;6.57;;;2.38;;
76576;SDS011;65441;44.748;37.600;2022-12-29T00:30:51;12.68;;;2.22;;
76576;SDS011;65441;44.748;37.600;2022-12-29T00:33:43;7.05;;;2.15;;
76576;SDS011;65441;44.748;37.600;2022-12-29T00:36:38;10.43;;;2.30;;
76576;SDS011;65441;44.748;37.600;2022-12-29T00:39:14;6.50;;;2.13;;
76576;SDS011;65441;44.748;37.600;2022-12-29T00:42:10;8.60;;;2.55;;
76576;SDS011;65441;44.748;37.600;2022-12-29T00:45:01;6.75;;;2.00;;
76576;SDS011;65441;44.748;37.600;2022-12-29T00:50:09;10.52;;;2.35;;
76576;SDS011;65441;44.748;37.600;2022-12-29T00:52:42;7.55;;;2.40;;
76576;SDS011;65441;44.748;37.600;2022-12-29T00:55:16;7.45;;;2.20;;
76576;SDS011;65441;44.748;37.600;2022-12-29T00:57:52;6.93;;;2.17;;
76576;SDS011;65441;44.748;37.600;2022-12-29T01:00:26;8.65;;;2.75;;
76576;SDS011;65441;44.748;37.600;2022-12-29T01:03:01;7.75;;;2.58;;
76576;SDS011;65441;44.748;37.600;2022-12-29T01:05:36;6.22;;;2.50;;
76576;SDS011;65441;44.748;37.600;2022-12-29T01:08:13;6.82;;;2.33;;
76576;SDS011;65441;44.748;37.600;2022-12-29T01:10:57;5.28;;;2.22;;
76576;SDS011;65441;44.748;37.600;2022-12-29T01:13:32;7.93;;;2.13;;
76576;SDS011;65441;44.748;37.600;2022-12-29T01:16:07;8.40;;;2.63;;
76576;SDS011;65441;44.748;37.600;2022-12-29T01:18:45;8.40;;;2.45;;
76576;SDS011;65441;44.748;37.600;2022-12-29T01:21:19;5.80;;;2.00;;
76576;SDS011;65441;44.748;37.600;2022-12-29T01:26:26;6.82;;;2.45;;
76576;SDS011;65441;44.748;37.600;2022-12-29T01:29:02;7.25;;;2.22;;
76576;SDS011;65441;44.748;37.600;2022-12-29T01:31:38;8.07;;;2.55;;
76576;SDS011;65441;44.748;37.600;2022-12-29T01:34:16;6.97;;;2.20;;
76576;SDS011;65441;44.748;37.600;2022-12-29T01:39:23;12.20;;;2.65;;
76576;SDS011;65441;44.748;37.600;2022-12-29T01:41:57;8.38;;;2.15;;
76576;SDS011;65441;44.748;37.600;2022-12-29T01:44:52;8.07;;;2.63;;
76576;SDS011;65441;44.748;37.600;2022-12-29T01:47:30;9.43;;;2.70;;
76576;SDS011;65441;44.748;37.600;2022-12-29T01:50:11;8.05;;;2.72;;
76576;SDS011;65441;44.748;37.600;2022-12-29T01:52:50;7.43;;;2.10;;
76576;SDS011;65441;44.748;37.600;2022-12-29T01:55:28;6.10;;;2.30;;
76576;SDS011;65441;44.748;37.600;2022-12-29T01:58:06;7.88;;;2.50;;
76576;SDS011;65441;44.748;37.600;2022-12-29T02:00:46;9.38;;;2.72;;
76576;SDS011;65441;44.748;37.600;2022-12-29T02:03:20;10.63;;;2.75;;
76576;SDS011;65441;44.748;37.600;2022-12-29T02:05:58;9.68;;;2.72;;
76576;SDS011;65441;44.748;37.600;2022-12-29T02:08:37;7.43;;;2.55;;
76576;SDS011;65441;44.748;37.600;2022-12-29T02:11:13;8.93;;;2.63;;
76576;SDS011;65441;44.748;37.600;2022-12-29T02:13:51;8.60;;;2.83;;
76576;SDS011;65441;44.748;37.600;2022-12-29T02:16:30;7.72;;;2.15;;
76576;SDS011;65441;44.748;37.600;2022-12-29T02:19:25;8.20;;;2.00;;
76576;SDS011;65441;44.748;37.600;2022-12-29T02:22:24;6.40;;;2.13;;
76576;SDS011;65441;44.748;37.600;2022-12-29T02:25:14;6.95;;;2.42;;
76576;SDS011;65441;44.748;37.600;2022-12-29T02:28:29;8.85;;;2.00;;
76576;SDS011;65441;44.748;37.600;2022-12-29T02:34:00;10.88;;;2.40;;
76576;SDS011;65441;44.748;37.600;2022-12-29T02:36:45;7.50;;;2.00;;
76576;SDS011;65441;44.748;37.600;2022-12-29T02:39:27;6.20;;;2.20;;
76576;SDS011;65441;44.748;37.600;2022-12-29T02:42:09;6.75;;;1.90;;
76576;SDS011;65441;44.748;37.600;2022-12-29T02:44:54;7.38;;;2.35;;
76576;SDS011;65441;44.748;37.600;2022-12-29T02:47:37;8.57;;;3.10;;
76576;SDS011;65441;44.748;37.600;2022-12-29T02:52:57;5.47;;;2.00;;
76576;SDS011;65441;44.748;37.600;2022-12-29T02:55:33;6.90;;;2.20;;
76576;SDS011;65441;44.748;37.600;2022-12-29T02:58:13;7.90;;;2.47;;
76576;SDS011;65441;44.748;37.600;2022-12-29T03:00:54;7.55;;;2.20;;
76576;SDS011;65441;44.748;37.600;2022-12-29T03:03:40;8.10;;;2.25;;
76576;SDS011;65441;44.748;37.600;2022-12-29T03:06:25;8.27;;;2.30;;
76576;SDS011;65441;44.748;37.600;2022-12-29T03:09:10;9.57;;;2.00;;
76576;SDS011;65441;44.748;37.600;2022-12-29T03:12:02;7.10;;;1.75;;
76576;SDS011;65441;44.748;37.600;2022-12-29T03:14:48;7.25;;;1.67;;
76576;SDS011;65441;44.748;37.600;2022-12-29T03:17:49;6.95;;;1.50;;
76576;SDS011;65441;44.748;37.600;2022-12-29T03:20:31;5.35;;;1.55;;
76576;SDS011;65441;44.748;37.600;2022-12-29T03:23:10;7.45;;;1.67;;
76576;SDS011;65441;44.748;37.600;2022-12-29T03:25:47;6.72;;;1.63;;
76576;SDS011;65441;44.748;37.600;2022-12-29T03:28:27;6.00;;;1.52;;
76576;SDS011;65441;44.748;37.600;2022-12-29T03:31:04;4.00;;;1.48;;
76576;SDS011;65441;44.748;37.600;2022-12-29T03:33:40;3.65;;;1.20;;
76576;SDS011;65441;44.748;37.600;2022-12-29T03:36:20;7.82;;;1.88;;
76576;SDS011;65441;44.748;37.600;2022-12-29T03:39:01;4.15;;;1.25;;
76576;SDS011;65441;44.748;37.600;2022-12-29T03:41:42;5.25;;;1.63;;
76576;SDS011;65441;44.748;37.600;2022-12-29T03:44:18;3.13;;;1.23;;
76576;SDS011;65441;44.748;37.600;2022-12-29T03:46:52;5.47;;;1.75;;
76576;SDS011;65441;44.748;37.600;2022-12-29T03:49:27;4.90;;;1.50;;
76576;SDS011;65441;44.748;37.600;2022-12-29T03:52:02;6.63;;;1.90;;
76576;SDS011;65441;44.748;37.600;2022-12-29T03:54:39;4.93;;;1.30;;
76576;SDS011;65441;44.748;37.600;2022-12-29T03:57:13;5.32;;;1.70;;
76576;SDS011;65441;44.748;37.600;2022-12-29T03:59:57;6.60;;;1.80;;
76576;SDS011;65441;44.748;37.600;2022-12-29T04:02:34;7.38;;;2.03;;
76576;SDS011;65441;44.748;37.600;2022-12-29T04:05:08;4.90;;;1.60;;
76576;SDS011;65441;44.748;37.600;2022-12-29T04:07:44;4.55;;;1.50;;
76576;SDS011;65441;44.748;37.600;2022-12-29T04:10:19;5.57;;;1.60;;
76576;SDS011;65441;44.748;37.600;2022-12-29T04:12:56;6.43;;;1.75;;
76576;SDS011;65441;44.748;37.600;2022-12-29T04:15:31;4.18;;;1.63;;
76576;SDS011;65441;44.748;37.600;2022-12-29T04:18:06;5.75;;;1.60;;
76576;SDS011;65441;44.748;37.600;2022-12-29T04:20:44;5.90;;;1.60;;
76576;SDS011;65441;44.748;37.600;2022-12-29T04:23:38;5.90;;;1.77;;
76576;SDS011;65441;44.748;37.600;2022-12-29T04:26:15;6.43;;;1.90;;
76576;SDS011;65441;44.748;37.600;2022-12-29T04:29:02;8.70;;;2.17;;
76576;SDS011;65441;44.748;37.600;2022-12-29T04:31:56;6.95;;;2.17;;
76576;SDS011;65441;44.748;37.600;2022-12-29T04:34:30;4.78;;;1.92;;
76576;SDS011;65441;44.748;37.600;2022-12-29T04:37:04;8.32;;;2.38;;
76576;SDS011;65441;44.748;37.600;2022-12-29T04:39:40;7.00;;;1.88;;
76576;SDS011;65441;44.748;37.600;2022-12-29T04:42:19;5.68;;;1.60;;
76576;SDS011;65441;44.748;37.600;2022-12-29T04:44:55;4.60;;;1.70;;
76576;SDS011;65441;44.748;37.600;2022-12-29T04:47:44;5.00;;;1.40;;
76576;SDS011;65441;44.748;37.600;2022-12-29T04:50:41;6.93;;;1.95;;
76576;SDS011;65441;44.748;37.600;2022-12-29T04:53:24;5.97;;;1.75;;
76576;SDS011;65441;44.748;37.600;2022-12-29T04:56:00;5.20;;;1.48;;
76576;SDS011;65441;44.748;37.600;2022-12-29T04:58:35;4.28;;;1.35;;
76576;SDS011;65441;44.748;37.600;2022-12-29T05:01:10;10.00;;;2.00;;
76576;SDS011;65441;44.748;37.600;2022-12-29T05:03:46;6.80;;;2.38;;
76576;SDS011;65441;44.748;37.600;2022-12-29T05:06:20;5.95;;;1.60;;
76576;SDS011;65441;44.748;37.600;2022-12-29T05:08:55;6.07;;;1.38;;
76576;SDS011;65441;44.748;37.600;2022-12-29T05:11:30;7.63;;;1.88;;
76576;SDS011;65441;44.748;37.600;2022-12-29T05:14:05;6.05;;;1.40;;
76576;SDS011;65441;44.748;37.600;2022-12-29T05:16:40;4.18;;;1.40;;
76576;SDS011;65441;44.748;37.600;2022-12-29T05:19:14;7.10;;;1.70;;
76576;SDS011;65441;44.748;37.600;2022-12-29T05:21:50;6.80;;;1.83;;
76576;SDS011;65441;44.748;37.600;2022-12-29T05:24:24;6.60;;;2.10;;
76576;SDS011;65441;44.748;37.600;2022-12-29T05:27:02;12.88;;;2.92;;
76576;SDS011;65441;44.748;37.600;2022-12-29T05:29:49;10.43;;;2.97;;
76576;SDS011;65441;44.748;37.600;2022-12-29T05:32:24;6.63;;;2.55;;
76576;SDS011;65441;44.748;37.600;2022-12-29T05:34:59;9.77;;;3.25;;
76576;SDS011;65441;44.748;37.600;2022-12-29T05:37:34;6.85;;;2.35;;
76576;SDS011;65441;44.748;37.600;2022-12-29T05:40:08;6.50;;;2.33;;
76576;SDS011;65441;44.748;37.600;2022-12-29T05:42:45;11.85;;;2.53;;
76576;SDS011;65441;44.748;37.600;2022-12-29T05:45:43;10.13;;;2.40;;
76576;SDS011;65441;44.748;37.600;2022-12-29T05:48:36;9.55;;;2.22;;
76576;SDS011;65441;44.748;37.600;2022-12-29T05:51:23;9.35;;;2.25;;
76576;SDS011;65441;44.748;37.600;2022-12-29T05:53:58;6.93;;;2.35;;
76576;SDS011;65441;44.748;37.600;2022-12-29T05:56:32;11.48;;;2.50;;
76576;SDS011;65441;44.748;37.600;2022-12-29T05:59:11;6.40;;;1.90;;
76576;SDS011;65441;44.748;37.600;2022-12-29T06:01:45;6.43;;;2.10;;
76576;SDS011;65441;44.748;37.600;2022-12-29T06:04:19;9.57;;;2.22;;
76576;SDS011;65441;44.748;37.600;2022-12-29T06:06:53;6.88;;;2.15;;
76576;SDS011;65441;44.748;37.600;2022-12-29T06:09:36;5.88;;;1.88;;
76576;SDS011;65441;44.748;37.600;2022-12-29T06:12:10;8.35;;;2.83;;
76576;SDS011;65441;44.748;37.600;2022-12-29T06:14:49;6.00;;;2.05;;
76576;SDS011;65441;44.748;37.600;2022-12-29T06:17:23;5.63;;;2.15;;
76576;SDS011;65441;44.748;37.600;2022-12-29T06:19:56;9.77;;;2.70;;
76576;SDS011;65441;44.748;37.600;2022-12-29T06:22:31;8.02;;;2.28;;
76576;SDS011;65441;44.748;37.600;2022-12-29T06:25:05;7.25;;;2.40;;
76576;SDS011;65441;44.748;37.600;2022-12-29T06:27:40;11.02;;;2.90;;
76576;SDS011;65441;44.748;37.600;2022-12-29T06:30:16;9.13;;;3.15;;
76576;SDS011;65441;44.748;37.600;2022-12-29T06:32:53;14.07;;;3.75;;
76576;SDS011;65441;44.748;37.600;2022-12-29T06:35:28;17.73;;;5.97;;
76576;SDS011;65441;44.748;37.600;2022-12-29T06:38:02;13.95;;;4.93;;
76576;SDS011;65441;44.748;37.600;2022-12-29T06:40:36;12.32;;;3.88;;
76576;SDS011;65441;44.748;37.600;2022-12-29T06:43:13;18.33;;;4.78;;
76576;SDS011;65441;44.748;37.600;2022-12-29T06:46:07;11.05;;;3.50;;
76576;SDS011;65441;44.748;37.600;2022-12-29T06:48:41;12.10;;;4.07;;
76576;SDS011;65441;44.748;37.600;2022-12-29T06:53:51;8.43;;;2.90;;
76576;SDS011;65441;44.748;37.600;2022-12-29T06:56:25;8.30;;;3.13;;
76576;SDS011;65441;44.748;37.600;2022-12-29T06:59:04;13.98;;;4.20;;
76576;SDS011;65441;44.748;37.600;2022-12-29T07:01:39;9.25;;;4.65;;
76576;SDS011;65441;44.748;37.600;2022-12-29T07:04:13;12.98;;;5.03;;
76576;SDS011;65441;44.748;37.600;2022-12-29T07:06:47;13.77;;;4.45;;
76576;SDS011;65441;44.748;37.600;2022-12-29T07:09:21;12.82;;;5.15;;
76576;SDS011;65441;44.748;37.600;2022-12-29T07:11:55;15.50;;;5.63;;
76576;SDS011;65441;44.748;37.600;2022-12-29T07:14:29;11.63;;;4.60;;
76576;SDS011;65441;44.748;37.600;2022-12-29T07:17:04;8.80;;;3.88;;
76576;SDS011;65441;44.748;37.600;2022-12-29T07:19:43;10.40;;;4.28;;
76576;SDS011;65441;44.748;37.600;2022-12-29T07:22:18;14.00;;;4.70;;
76576;SDS011;65441;44.748;37.600;2022-12-29T07:24:52;12.68;;;5.40;;
76576;SDS011;65441;44.748;37.600;2022-12-29T07:27:26;20.80;;;5.80;;
76576;SDS011;65441;44.748;37.600;2022-12-29T07:30:00;11.75;;;4.85;;
76576;SDS011;65441;44.748;37.600;2022-12-29T07:32:35;10.57;;;4.18;;
76576;SDS011;65441;44.748;37.600;2022-12-29T07:35:09;9.70;;;3.38;;
76576;SDS011;65441;44.748;37.600;2022-12-29T07:37:43;14.43;;;3.95;;
76576;SDS011;65441;44.748;37.600;2022-12-29T07:40:17;10.57;;;3.35;;
76576;SDS011;65441;44.748;37.600;2022-12-29T07:42:51;7.80;;;2.88;;
76576;SDS011;65441;44.748;37.600;2022-12-29T07:45:34;7.82;;;3.00;;
76576;SDS011;65441;44.748;37.600;2022-12-29T07:48:15;10.82;;;3.70;;
76576;SDS011;65441;44.748;37.600;2022-12-29T07:50:51;12.10;;;3.75;;
76576;SDS011;65441;44.748;37.600;2022-12-29T07:53:26;10.82;;;3.30;;
76576;SDS011;65441;44.748;37.600;2022-12-29T07:56:00;7.97;;;2.58;;
76576;SDS011;65441;44.748;37.600;2022-12-29T07:58:34;7.63;;;2.00;;
76576;SDS011;65441;44.748;37.600;2022-12-29T08:01:08;6.53;;;2.10;;
76576;SDS011;65441;44.748;37.600;2022-12-29T08:03:44;5.93;;;2.10;;
76576;SDS011;65441;44.748;37.600;2022-12-29T08:06:17;6.60;;;1.65;;
76576;SDS011;65441;44.748;37.600;2022-12-29T08:08:51;6.10;;;2.08;;
76576;SDS011;65441;44.748;37.600;2022-12-29T08:11:28;6.40;;;1.63;;
76576;SDS011;65441;44.748;37.600;2022-12-29T08:14:02;5.30;;;1.85;;
76576;SDS011;65441;44.748;37.600;2022-12-29T08:16:37;6.32;;;1.92;;
76576;SDS011;65441;44.748;37.600;2022-12-29T08:19:13;5.63;;;1.55;;
76576;SDS011;65441;44.748;37.600;2022-12-29T08:21:47;6.78;;;2.00;;
76576;SDS011;65441;44.748;37.600;2022-12-29T08:24:21;6.70;;;2.10;;
76576;SDS011;65441;44.748;37.600;2022-12-29T08:26:55;7.35;;;1.95;;
76576;SDS011;65441;44.748;37.600;2022-12-29T08:29:29;5.03;;;1.58;;
76576;SDS011;65441;44.748;37.600;2022-12-29T08:32:03;5.25;;;1.33;;
76576;SDS011;65441;44.748;37.600;2022-12-29T08:34:39;8.23;;;1.50;;
76576;SDS011;65441;44.748;37.600;2022-12-29T08:37:18;6.57;;;1.70;;
76576;SDS011;65441;44.748;37.600;2022-12-29T08:39:51;5.97;;;1.50;;
76576;SDS011;65441;44.748;37.600;2022-12-29T08:42:25;4.75;;;1.40;;
76576;SDS011;65441;44.748;37.600;2022-12-29T08:45:02;10.25;;;3.08;;
76576;SDS011;65441;44.748;37.600;2022-12-29T08:47:37;12.15;;;2.75;;
76576;SDS011;65441;44.748;37.600;2022-12-29T08:50:12;7.38;;;2.20;;
76576;SDS011;65441;44.748;37.600;2022-12-29T08:52:46;5.78;;;1.90;;
76576;SDS011;65441;44.748;37.600;2022-12-29T08:57:54;6.05;;;2.08;;
76576;SDS011;65441;44.748;37.600;2022-12-29T09:00:29;4.40;;;1.58;;
76576;SDS011;65441;44.748;37.600;2022-12-29T09:03:03;6.93;;;1.65;;
76576;SDS011;65441;44.748;37.600;2022-12-29T09:05:38;4.32;;;1.50;;
76576;SDS011;65441;44.748;37.600;2022-12-29T09:08:13;4.72;;;1.70;;
76576;SDS011;65441;44.748;37.600;2022-12-29T09:10:47;6.50;;;2.10;;
76576;SDS011;65441;44.748;37.600;2022-12-29T09:13:21;8.25;;;2.28;;
76576;SDS011;65441;44.748;37.600;2022-12-29T09:15:57;7.90;;;1.88;;
76576;SDS011;65441;44.748;37.600;2022-12-29T09:18:31;5.90;;;1.52;;
76576;SDS011;65441;44.748;37.600;2022-12-29T09:21:07;5.45;;;1.45;;
76576;SDS011;65441;44.748;37.600;2022-12-29T09:23:43;5.55;;;1.33;;
76576;SDS011;65441;44.748;37.600;2022-12-29T09:26:18;5.25;;;1.30;;
76576;SDS011;65441;44.748;37.600;2022-12-29T09:28:52;2.83;;;1.00;;
76576;SDS011;65441;44.748;37.600;2022-12-29T09:31:26;6.97;;;1.00;;
76576;SDS011;65441;44.748;37.600;2022-12-29T09:34:00;5.53;;;1.35;;
76576;SDS011;65441;44.748;37.600;2022-12-29T09:36:35;3.67;;;1.10;;
76576;SDS011;65441;44.748;37.600;2022-12-29T09:39:09;2.80;;;0.98;;
76576;SDS011;65441;44.748;37.600;2022-12-29T09:41:45;3.28;;;0.90;;
76576;SDS011;65441;44.748;37.600;2022-12-29T09:44:28;3.60;;;1.00;;
76576;SDS011;65441;44.748;37.600;2022-12-29T09:47:13;3.75;;;1.05;;
76576;SDS011;65441;44.748;37.600;2022-12-29T09:49:49;5.53;;;1.20;;
76576;SDS011;65441;44.748;37.600;2022-12-29T09:52:30;4.28;;;0.85;;
76576;SDS011;65441;44.748;37.600;2022-12-29T09:55:09;3.67;;;1.00;;
76576;SDS011;65441;44.748;37.600;2022-12-29T09:57:52;4.25;;;0.88;;
76576;SDS011;65441;44.748;37.600;2022-12-29T10:00:33;3.38;;;1.10;;
76576;SDS011;65441;44.748;37.600;2022-12-29T10:03:13;3.40;;;1.13;;
76576;SDS011;65441;44.748;37.600;2022-12-29T10:05:52;4.18;;;1.27;;
76576;SDS011;65441;44.748;37.600;2022-12-29T10:08:34;3.60;;;0.98;;
76576;SDS011;65441;44.748;37.600;2022-12-29T10:11:19;4.18;;;0.95;;
76576;SDS011;65441;44.748;37.600;2022-12-29T10:14:10;3.28;;;0.88;;
76576;SDS011;65441;44.748;37.600;2022-12-29T10:16:57;8.38;;;1.10;;
76576;SDS011;65441;44.748;37.600;2022-12-29T10:19:46;3.75;;;1.08;;
76576;SDS011;65441;44.748;37.600;2022-12-29T10:22:32;4.47;;;0.93;;
76576;SDS011;65441;44.748;37.600;2022-12-29T10:25:20;2.42;;;0.80;;
76576;SDS011;65441;44.748;37.600;2022-12-29T10:27:58;3.42;;;0.73;;
76576;SDS011;65441;44.748;37.600;2022-12-29T10:30:34;1.88;;;0.60;;
76576;SDS011;65441;44.748;37.600;2022-12-29T10:33:11;3.42;;;0.70;;
76576;SDS011;65441;44.748;37.600;2022-12-29T10:35:50;2.78;;;0.60;;
76576;SDS011;65441;44.748;37.600;2022-12-29T10:38:25;2.85;;;0.90;;
76576;SDS011;65441;44.748;37.600;2022-12-29T10:41:08;4.78;;;1.30;;
76576;SDS011;65441;44.748;37.600;2022-12-29T10:43:49;5.53;;;1.30;;
76576;SDS011;65441;44.748;37.600;2022-12-29T10:46:32;3.35;;;0.90;;
76576;SDS011;65441;44.748;37.600;2022-12-29T10:49:12;2.55;;;0.80;;
76576;SDS011;65441;44.748;37.600;2022-12-29T10:51:49;4.63;;;0.60;;
76576;SDS011;65441;44.748;37.600;2022-12-29T10:54:27;5.13;;;1.00;;
76576;SDS011;65441;44.748;37.600;2022-12-29T10:57:09;3.17;;;0.57;;
76576;SDS011;65441;44.748;37.600;2022-12-29T10:59:48;2.95;;;0.70;;
76576;SDS011;65441;44.748;37.600;2022-12-29T11:02:25;3.25;;;0.70;;
76576;SDS011;65441;44.748;37.600;2022-12-29T11:05:19;3.38;;;0.90;;
76576;SDS011;65441;44.748;37.600;2022-12-29T11:08:01;3.58;;;0.80;;
76576;SDS011;65441;44.748;37.600;2022-12-29T11:10:37;1.17;;;0.40;;
76576;SDS011;65441;44.748;37.600;2022-12-29T11:13:24;5.18;;;0.90;;
76576;SDS011;65441;44.748;37.600;2022-12-29T11:15:59;2.60;;;0.80;;
76576;SDS011;65441;44.748;37.600;2022-12-29T11:18:36;1.98;;;0.50;;
76576;SDS011;65441;44.748;37.600;2022-12-29T11:21:23;4.68;;;0.75;;
76576;SDS011;65441;44.748;37.600;2022-12-29T11:24:00;4.35;;;1.27;;
76576;SDS011;65441;44.748;37.600;2022-12-29T11:26:35;3.05;;;1.05;;
76576;SDS011;65441;44.748;37.600;2022-12-29T11:29:26;3.60;;;0.80;;
76576;SDS011;65441;44.748;37.600;2022-12-29T11:32:02;4.40;;;1.38;;
76576;SDS011;65441;44.748;37.600;2022-12-29T11:34:45;3.47;;;0.80;;
76576;SDS011;65441;44.748;37.600;2022-12-29T11:37:19;14.32;;;1.20;;
76576;SDS011;65441;44.748;37.600;2022-12-29T11:40:00;4.40;;;1.23;;
76576;SDS011;65441;44.748;37.600;2022-12-29T11:42:38;3.30;;;0.90;;
76576;SDS011;65441;44.748;37.600;2022-12-29T11:45:22;4.15;;;0.93;;
76576;SDS011;65441;44.748;37.600;2022-12-29T11:47:58;2.65;;;0.80;;
76576;SDS011;65441;44.748;37.600;2022-12-29T11:50:36;2.78;;;0.90;;
76576;SDS011;65441;44.748;37.600;2022-12-29T11:53:14;2.45;;;0.73;;
76576;SDS011;65441;44.748;37.600;2022-12-29T11:55:51;4.15;;;0.80;;
76576;SDS011;65441;44.748;37.600;2022-12-29T11:58:30;4.10;;;0.60;;
76576;SDS011;65441;44.748;37.600;2022-12-29T12:01:09;3.05;;;0.63;;
76576;SDS011;65441;44.748;37.600;2022-12-29T12:03:47;4.93;;;1.00;;
76576;SDS011;65441;44.748;37.600;2022-12-29T12:06:29;1.88;;;0.70;;
76576;SDS011;65441;44.748;37.600;2022-12-29T12:11:47;2.15;;;0.70;;
76576;SDS011;65441;44.748;37.600;2022-12-29T12:14:27;3.30;;;0.50;;
76576;SDS011;65441;44.748;37.600;2022-12-29T12:17:27;2.67;;;0.70;;
76576;SDS011;65441;44.748;37.600;2022-12-29T12:20:13;2.30;;;0.77;;
76576;SDS011;65441;44.748;37.600;2022-12-29T12:22:58;1.60;;;0.60;;
76576;SDS011;65441;44.748;37.600;2022-12-29T12:25:42;1.77;;;0.60;;
76576;SDS011;65441;44.748;37.600;2022-12-29T12:28:21;1.95;;;0.52;;
76576;SDS011;65441;44.748;37.600;2022-12-29T12:31:01;4.10;;;0.77;;
76576;SDS011;65441;44.748;37.600;2022-12-29T12:33:41;1.65;;;0.68;;
76576;SDS011;65441;44.748;37.600;2022-12-29T12:36:31;1.75;;;0.52;;
76576;SDS011;65441;44.748;37.600;2022-12-29T12:39:24;3.78;;;0.90;;
76576;SDS011;65441;44.748;37.600;2022-12-29T12:42:03;1.63;;;0.60;;
76576;SDS011;65441;44.748;37.600;2022-12-29T12:47:38;3.28;;;0.70;;
76576;SDS011;65441;44.748;37.600;2022-12-29T12:50:31;3.35;;;0.70;;
76576;SDS011;65441;44.748;37.600;2022-12-29T12:53:19;4.10;;;0.75;;
76576;SDS011;65441;44.748;37.600;2022-12-29T12:56:11;7.88;;;1.45;;
76576;SDS011;65441;44.748;37.600;2022-12-29T12:59:02;4.68;;;1.27;;
76576;SDS011;65441;44.748;37.600;2022-12-29T13:01:46;5.00;;;1.10;;
76576;SDS011;65441;44.748;37.600;2022-12-29T13:04:41;4.50;;;1.33;;
76576;SDS011;65441;44.748;37.600;2022-12-29T13:07:40;6.18;;;1.52;;
76576;SDS011;65441;44.748;37.600;2022-12-29T13:10:22;6.57;;;1.45;;
76576;SDS011;65441;44.748;37.600;2022-12-29T13:13:12;6.85;;;1.63;;
76576;SDS011;65441;44.748;37.600;2022-12-29T13:16:03;7.57;;;0.60;;
76576;SDS011;65441;44.748;37.600;2022-12-29T13:18:50;3.10;;;0.55;;
76576;SDS011;65441;44.748;37.600;2022-12-29T13:21:37;2.42;;;0.70;;
76576;SDS011;65441;44.748;37.600;2022-12-29T13:24:23;1.77;;;0.43;;
76576;SDS011;65441;44.748;37.600;2022-12-29T13:27:04;4.15;;;0.80;;
76576;SDS011;65441;44.748;37.600;2022-12-29T13:29:50;1.35;;;0.57;;
76576;SDS011;65441;44.748;37.600;2022-12-29T13:32:36;3.28;;;0.80;;
76576;SDS011;65441;44.748;37.600;2022-12-29T13:35:25;2.78;;;0.70;;
76576;SDS011;65441;44.748;37.600;2022-12-29T13:40:45;8.20;;;1.30;;
76576;SDS011;65441;44.748;37.600;2022-12-29T13:43:23;3.42;;;0.80;;
76576;SDS011;65441;44.748;37.600;2022-12-29T13:45:59;3.58;;;1.00;;
76576;SDS011;65441;44.748;37.600;2022-12-29T13:48:39;6.38;;;1.20;;
76576;SDS011;65441;44.748;37.600;2022-12-29T13:51:16;7.53;;;1.33;;
76576;SDS011;65441;44.748;37.600;2022-12-29T13:54:00;9.60;;;0.90;;
76576;SDS011;65441;44.748;37.600;2022-12-29T13:56:41;9.90;;;0.93;;
76576;SDS011;65441;44.748;37.600;2022-12-29T13:59:28;9.43;;;0.85;;
76576;SDS011;65441;44.748;37.600;2022-12-29T14:02:21;1.80;;;0.57;;
76576;SDS011;65441;44.748;37.600;2022-12-29T14:05:05;2.13;;;0.70;;
76576;SDS011;65441;44.748;37.600;2022-12-29T14:08:13;3.65;;;0.88;;
76576;SDS011;65441;44.748;37.600;2022-12-29T14:10:51;3.15;;;0.77;;
76576;SDS011;65441;44.748;37.600;2022-12-29T14:13:30;3.63;;;0.60;;
76576;SDS011;65441;44.748;37.600;2022-12-29T14:16:04;2.72;;;0.70;;
76576;SDS011;65441;44.748;37.600;2022-12-29T14:18:41;4.10;;;0.75;;
76576;SDS011;65441;44.748;37.600;2022-12-29T14:21:18;2.72;;;0.80;;
76576;SDS011;65441;44.748;37.600;2022-12-29T14:24:25;5.90;;;1.27;;
76576;SDS011;65441;44.748;37.600;2022-12-29T14:27:00;2.85;;;0.65;;
76576;SDS011;65441;44.748;37.600;2022-12-29T14:29:45;4.07;;;0.77;;
76576;SDS011;65441;44.748;37.600;2022-12-29T14:32:36;2.58;;;0.80;;
76576;SDS011;65441;44.748;37.600;2022-12-29T14:35:37;5.68;;;1.00;;
76576;SDS011;65441;44.748;37.600;2022-12-29T14:38:14;5.05;;;0.90;;
76576;SDS011;65441;44.748;37.600;2022-12-29T14:40:50;3.83;;;0.70;;
76576;SDS011;65441;44.748;37.600;2022-12-29T14:43:25;4.57;;;0.93;;
76576;SDS011;65441;44.748;37.600;2022-12-29T14:46:02;3.85;;;0.88;;
76576;SDS011;65441;44.748;37.600;2022-12-29T14:48:37;6.35;;;1.05;;
76576;SDS011;65441;44.748;37.600;2022-12-29T14:51:27;4.40;;;1.00;;
76576;SDS011;65441;44.748;37.600;2022-12-29T15:00:17;1.52;;;0.57;;
76576;SDS011;65441;44.748;37.600;2022-12-29T15:02:59;3.75;;;1.02;;
76576;SDS011;65441;44.748;37.600;2022-12-29T15:05:41;1.88;;;0.55;;
76576;SDS011;65441;44.748;37.600;2022-12-29T15:08:22;2.67;;;0.70;;
76576;SDS011;65441;44.748;37.600;2022-12-29T15:11:00;3.90;;;1.45;;
76576;SDS011;65441;44.748;37.600;2022-12-29T15:13:38;5.13;;;1.35;;
76576;SDS011;65441;44.748;37.600;2022-12-29T15:16:24;3.22;;;1.05;;
76576;SDS011;65441;44.748;37.600;2022-12-29T15:19:00;8.45;;;1.95;;
76576;SDS011;65441;44.748;37.600;2022-12-29T15:21:36;5.22;;;1.90;;
76576;SDS011;65441;44.748;37.600;2022-12-29T15:24:10;5.70;;;1.80;;
76576;SDS011;65441;44.748;37.600;2022-12-29T15:26:46;5.00;;;1.40;;
76576;SDS011;65441;44.748;37.600;2022-12-29T15:29:30;11.27;;;3.95;;
76576;SDS011;65441;44.748;37.600;2022-12-29T15:32:21;11.45;;;3.30;;
76576;SDS011;65441;44.748;37.600;2022-12-29T15:34:58;8.90;;;3.30;;
76576;SDS011;65441;44.748;37.600;2022-12-29T15:37:33;11.15;;;3.47;;
76576;SDS011;65441;44.748;37.600;2022-12-29T15:40:19;18.42;;;6.28;;
76576;SDS011;65441;44.748;37.600;2022-12-29T15:43:06;14.77;;;4.32;;
76576;SDS011;65441;44.748;37.600;2022-12-29T15:45:57;7.32;;;2.10;;
76576;SDS011;65441;44.748;37.600;2022-12-29T15:48:33;6.50;;;2.00;;
76576;SDS011;65441;44.748;37.600;2022-12-29T15:51:13;4.13;;;1.23;;
76576;SDS011;65441;44.748;37.600;2022-12-29T15:53:53;8.25;;;2.40;;
76576;SDS011;65441;44.748;37.600;2022-12-29T15:56:28;7.93;;;2.75;;
76576;SDS011;65441;44.748;37.600;2022-12-29T15:59:03;6.40;;;2.53;;
76576;SDS011;65441;44.748;37.600;2022-12-29T16:01:37;56.28;;;18.25;;
76576;SDS011;65441;44.748;37.600;2022-12-29T16:04:11;158.88;;;49.80;;
76576;SDS011;65441;44.748;37.600;2022-12-29T16:06:54;157.15;;;49.78;;
76576;SDS011;65441;44.748;37.600;2022-12-29T16:09:29;66.78;;;22.73;;
76576;SDS011;65441;44.748;37.600;2022-12-29T16:12:05;33.38;;;12.38;;
76576;SDS011;65441;44.748;37.600;2022-12-29T16:14:40;9.60;;;2.97;;
76576;SDS011;65441;44.748;37.600;2022-12-29T16:17:18;8.50;;;2.70;;
76576;SDS011;65441;44.748;37.600;2022-12-29T16:19:56;6.35;;;1.65;;
76576;SDS011;65441;44.748;37.600;2022-12-29T16:22:38;3.83;;;1.05;;